WGN1247 RKSI-EDDK
Flight info
| Callsign | WGN1247 |
|---|---|
| Flight time | N/A |
| Altitude | 32000 |
| Route | NOPIK Y697 AGAVO/K0806S0660 A591 IKEKA W4 FZ/K0900S0980 W4 HCH W200 DOVIV W55 PAMRU W34 LADIX B339 ASILA A575 UPREK W28 LAGEB W66 IPDAT/K0907S1040 W66 NUKTI B215 KABDO W119 GOBOK A343 RULAD/K0887F340 M610 BASPI/K0883F360 M610 TIPSA DCT TAR DCT KOLAM N143 OGOLI N193 LAPZE Y720 PIDWO N147 OTBOR/N0480F360 A480 TIMGA B476 METKA/N0483F380 L88 NIJAT N644 LAGAS DCT SARPI UG67 TBN UM11 CRM UL746 ODERO DCT OPT/N0477F400 DCT IRLOX DCT BUDOP DCT BALUX DCT BEGLA DCT STO DCT DITIS DCT VEXIL DCT KUMER DCT PIROT/N0483F410 N850 LARBU/N0479F400 DCT PODER Z189 RUNER T858 KOPAG KOPAG1B |
| Aircraft | MD11/H-SDE1E2E3FGHIJ2J3J4J5M1RWXY/LB1D1 |
Departure
| Time | 2026-05-05 05:21 |
|---|---|
| Airport | Incheon International Airport (RKSI) |
Arrival
| Time | N/A |
|---|---|
| Airport | Cologne Bonn Airport (EDDK) |
| Time | Latitude | Longitude | Altitude | Speed | Heading |
|---|---|---|---|---|---|
| 2026-05-05 04:43 | 37.46570 | 126.46263 | 67 ft | 0 kts | 324° |
| 2026-05-05 05:07 | 37.46558 | 126.46273 | 37 ft | 4 kts | 327° |
| 2026-05-05 05:08 | 37.46540 | 126.46291 | 37 ft | 1 kts | 308° |
| 2026-05-05 05:08 | 37.46525 | 126.46314 | 36 ft | 4 kts | 309° |
| 2026-05-05 05:08 | 37.46508 | 126.46341 | 38 ft | 4 kts | 303° |
| 2026-05-05 05:08 | 37.46504 | 126.46348 | 39 ft | 0 kts | 302° |
| 2026-05-05 05:12 | 37.46505 | 126.46347 | 39 ft | 1 kts | 301° |
| 2026-05-05 05:12 | 37.46506 | 126.46335 | 38 ft | 2 kts | 281° |
| 2026-05-05 05:13 | 37.46502 | 126.46315 | 40 ft | 3 kts | 250° |
| 2026-05-05 05:13 | 37.46482 | 126.46272 | 40 ft | 8 kts | 239° |
| 2026-05-05 05:13 | 37.46452 | 126.46198 | 40 ft | 11 kts | 244° |
| 2026-05-05 05:13 | 37.46433 | 126.46091 | 40 ft | 14 kts | 287° |
| 2026-05-05 05:14 | 37.46509 | 126.46001 | 38 ft | 17 kts | 325° |
| 2026-05-05 05:14 | 37.46617 | 126.45906 | 39 ft | 20 kts | 324° |
| 2026-05-05 05:14 | 37.46739 | 126.45795 | 38 ft | 23 kts | 324° |
| 2026-05-05 05:14 | 37.46875 | 126.45676 | 39 ft | 23 kts | 324° |
| 2026-05-05 05:15 | 37.46996 | 126.45568 | 40 ft | 20 kts | 324° |
| 2026-05-05 05:15 | 37.47100 | 126.45475 | 38 ft | 17 kts | 324° |
| 2026-05-05 05:15 | 37.47198 | 126.45388 | 40 ft | 18 kts | 325° |
| 2026-05-05 05:15 | 37.47308 | 126.45291 | 40 ft | 20 kts | 324° |
| 2026-05-05 05:16 | 37.47424 | 126.45188 | 39 ft | 21 kts | 325° |
| 2026-05-05 05:16 | 37.47548 | 126.45077 | 40 ft | 23 kts | 324° |
| 2026-05-05 05:16 | 37.47681 | 126.44957 | 39 ft | 24 kts | 324° |
| 2026-05-05 05:16 | 37.47823 | 126.44831 | 40 ft | 26 kts | 324° |
| 2026-05-05 05:17 | 37.47973 | 126.44697 | 40 ft | 27 kts | 324° |
| 2026-05-05 05:17 | 37.48130 | 126.44558 | 40 ft | 28 kts | 324° |
| 2026-05-05 05:17 | 37.48294 | 126.44413 | 40 ft | 29 kts | 325° |
| 2026-05-05 05:17 | 37.48432 | 126.44291 | 40 ft | 14 kts | 325° |
| 2026-05-05 05:18 | 37.48471 | 126.44234 | 40 ft | 7 kts | 287° |
| 2026-05-05 05:18 | 37.48458 | 126.44172 | 38 ft | 9 kts | 242° |
| 2026-05-05 05:18 | 37.48414 | 126.44089 | 40 ft | 14 kts | 233° |
| 2026-05-05 05:18 | 37.48354 | 126.43987 | 40 ft | 14 kts | 233° |
| 2026-05-05 05:19 | 37.48306 | 126.43901 | 39 ft | 11 kts | 236° |
| 2026-05-05 05:19 | 37.48270 | 126.43834 | 40 ft | 8 kts | 236° |
| 2026-05-05 05:19 | 37.48238 | 126.43776 | 40 ft | 9 kts | 235° |
| 2026-05-05 05:19 | 37.48199 | 126.43704 | 38 ft | 11 kts | 235° |
| 2026-05-05 05:20 | 37.48141 | 126.43673 | 40 ft | 10 kts | 164° |
| 2026-05-05 05:20 | 37.48078 | 126.43723 | 40 ft | 13 kts | 144° |
| 2026-05-05 05:20 | 37.47935 | 126.43849 | 39 ft | 53 kts | 144° |
| 2026-05-05 05:20 | 37.47425 | 126.44304 | 40 ft | 124 kts | 144° |
| 2026-05-05 05:21 | 37.46556 | 126.45077 | 38 ft | 178 kts | 145° |
| 2026-05-05 05:21 | 37.45523 | 126.46040 | 417 ft | 187 kts | 145° |
| 2026-05-05 05:21 | 37.44488 | 126.47042 | 1133 ft | 187 kts | 146° |
| 2026-05-05 05:21 | 37.43490 | 126.48088 | 1849 ft | 187 kts | 145° |
| 2026-05-05 05:22 | 37.42520 | 126.49156 | 2449 ft | 187 kts | 144° |
| 2026-05-05 05:22 | 37.41508 | 126.50189 | 2978 ft | 185 kts | 159° |
| 2026-05-05 05:22 | 37.40262 | 126.50486 | 3284 ft | 189 kts | 192° |
| 2026-05-05 05:22 | 37.39121 | 126.49713 | 3662 ft | 192 kts | 227° |
| 2026-05-05 05:23 | 37.38580 | 126.48170 | 4052 ft | 200 kts | 262° |
| 2026-05-05 05:23 | 37.38814 | 126.46415 | 4445 ft | 209 kts | 284° |
| 2026-05-05 05:23 | 37.39287 | 126.44672 | 4854 ft | 211 kts | 284° |
| 2026-05-05 05:23 | 37.39749 | 126.42937 | 5248 ft | 212 kts | 284° |
| 2026-05-05 05:24 | 37.40230 | 126.41121 | 5422 ft | 225 kts | 285° |
| 2026-05-05 05:24 | 37.40694 | 126.39194 | 5573 ft | 234 kts | 282° |
| 2026-05-05 05:24 | 37.41057 | 126.37157 | 5714 ft | 241 kts | 278° |
| 2026-05-05 05:24 | 37.41315 | 126.35045 | 5825 ft | 248 kts | 275° |
| 2026-05-05 05:25 | 37.41493 | 126.32812 | 5958 ft | 263 kts | 272° |
| 2026-05-05 05:25 | 37.41604 | 126.30521 | 6391 ft | 262 kts | 271° |
| 2026-05-05 05:25 | 37.41667 | 126.28218 | 6822 ft | 264 kts | 270° |
| 2026-05-05 05:25 | 37.41688 | 126.26685 | 7096 ft | 265 kts | 269° |
| 2026-05-05 05:26 | 37.41697 | 126.24357 | 7477 ft | 267 kts | 268° |
| 2026-05-05 05:26 | 37.41686 | 126.22010 | 7848 ft | 269 kts | 268° |
| 2026-05-05 05:26 | 37.41661 | 126.19650 | 8223 ft | 271 kts | 268° |
| 2026-05-05 05:26 | 37.41626 | 126.17268 | 8580 ft | 272 kts | 268° |
| 2026-05-05 05:27 | 37.41584 | 126.14877 | 8943 ft | 274 kts | 267° |
| 2026-05-05 05:27 | 37.41538 | 126.12509 | 9289 ft | 275 kts | 267° |
| 2026-05-05 05:27 | 37.41434 | 126.07661 | 9924 ft | 279 kts | 267° |
| 2026-05-05 05:28 | 37.41379 | 126.05212 | 10211 ft | 281 kts | 267° |
| 2026-05-05 05:28 | 37.41322 | 126.02740 | 10453 ft | 285 kts | 267° |
| 2026-05-05 05:28 | 37.41262 | 126.00211 | 10563 ft | 294 kts | 267° |
| 2026-05-05 05:28 | 37.41198 | 125.97569 | 10679 ft | 310 kts | 267° |
| 2026-05-05 05:29 | 37.41128 | 125.94760 | 10813 ft | 331 kts | 267° |
| 2026-05-05 05:29 | 37.41055 | 125.91803 | 10951 ft | 351 kts | 267° |
| 2026-05-05 05:29 | 37.40978 | 125.88701 | 11479 ft | 357 kts | 267° |
| 2026-05-05 05:29 | 37.40896 | 125.85555 | 11989 ft | 361 kts | 267° |
| 2026-05-05 05:30 | 37.40807 | 125.82369 | 12412 ft | 367 kts | 267° |
| 2026-05-05 05:30 | 37.40723 | 125.79143 | 12952 ft | 371 kts | 266° |
| 2026-05-05 05:30 | 37.40640 | 125.75874 | 13435 ft | 376 kts | 266° |
| 2026-05-05 05:30 | 37.40548 | 125.72613 | 13865 ft | 380 kts | 266° |
| 2026-05-05 05:31 | 37.40450 | 125.69256 | 14264 ft | 384 kts | 267° |
| 2026-05-05 05:31 | 37.40364 | 125.65892 | 14811 ft | 386 kts | 268° |
| 2026-05-05 05:31 | 37.40299 | 125.62509 | 15332 ft | 388 kts | 268° |
| 2026-05-05 05:31 | 37.40245 | 125.59101 | 15822 ft | 390 kts | 268° |
| 2026-05-05 05:32 | 37.40197 | 125.55719 | 16313 ft | 393 kts | 268° |
| 2026-05-05 05:32 | 37.40149 | 125.52277 | 16794 ft | 395 kts | 268° |
| 2026-05-05 05:32 | 37.40101 | 125.48802 | 17281 ft | 397 kts | 268° |
| 2026-05-05 05:32 | 37.40051 | 125.45314 | 17769 ft | 399 kts | 268° |
| 2026-05-05 05:33 | 37.40000 | 125.41809 | 18248 ft | 401 kts | 268° |
| 2026-05-05 05:33 | 37.39948 | 125.38291 | 18669 ft | 403 kts | 268° |
| 2026-05-05 05:33 | 37.39895 | 125.34798 | 19042 ft | 405 kts | 269° |
| 2026-05-05 05:33 | 37.39839 | 125.31239 | 19414 ft | 408 kts | 269° |
| 2026-05-05 05:34 | 37.39783 | 125.27658 | 19767 ft | 410 kts | 269° |
| 2026-05-05 05:34 | 37.39723 | 125.24054 | 20138 ft | 412 kts | 269° |
| 2026-05-05 05:34 | 37.39659 | 125.20441 | 20552 ft | 413 kts | 269° |
| 2026-05-05 05:34 | 37.39593 | 125.16817 | 20916 ft | 415 kts | 269° |
| 2026-05-05 05:35 | 37.39528 | 125.13180 | 21257 ft | 418 kts | 269° |
| 2026-05-05 05:35 | 37.39462 | 125.09516 | 21611 ft | 420 kts | 269° |
| 2026-05-05 05:35 | 37.39397 | 125.05865 | 21973 ft | 423 kts | 269° |
| 2026-05-05 05:35 | 37.39331 | 125.02148 | 22341 ft | 425 kts | 269° |
| 2026-05-05 05:36 | 37.39258 | 124.98416 | 22527 ft | 428 kts | 269° |
| 2026-05-05 05:36 | 37.39188 | 124.94664 | 22747 ft | 430 kts | 269° |
| 2026-05-05 05:36 | 37.39111 | 124.90897 | 23146 ft | 432 kts | 270° |
| 2026-05-05 05:36 | 37.39040 | 124.87108 | 23526 ft | 435 kts | 270° |
| 2026-05-05 05:37 | 37.38968 | 124.83288 | 23837 ft | 437 kts | 270° |
| 2026-05-05 05:37 | 37.38891 | 124.79457 | 24184 ft | 439 kts | 269° |
| 2026-05-05 05:37 | 37.38810 | 124.75603 | 24534 ft | 441 kts | 269° |
| 2026-05-05 05:37 | 37.38729 | 124.71778 | 24880 ft | 443 kts | 269° |
| 2026-05-05 05:38 | 37.38647 | 124.67898 | 25234 ft | 444 kts | 270° |
| 2026-05-05 05:38 | 37.38564 | 124.63997 | 25581 ft | 446 kts | 269° |
| 2026-05-05 05:38 | 37.38480 | 124.60078 | 25926 ft | 448 kts | 269° |
| 2026-05-05 05:38 | 37.38394 | 124.56145 | 26267 ft | 450 kts | 269° |
| 2026-05-05 05:39 | 37.38315 | 124.52243 | 26584 ft | 452 kts | 271° |
| 2026-05-05 05:39 | 37.38439 | 124.48288 | 26927 ft | 453 kts | 275° |
| 2026-05-05 05:39 | 37.38740 | 124.44329 | 27242 ft | 455 kts | 277° |
| 2026-05-05 05:39 | 37.39092 | 124.40365 | 27534 ft | 457 kts | 277° |
| 2026-05-05 05:40 | 37.39438 | 124.36374 | 27860 ft | 459 kts | 277° |
| 2026-05-05 05:40 | 37.39760 | 124.32361 | 28187 ft | 461 kts | 276° |
| 2026-05-05 05:40 | 37.40060 | 124.28336 | 28486 ft | 463 kts | 276° |
| 2026-05-05 05:40 | 37.40345 | 124.24277 | 28777 ft | 466 kts | 276° |
| 2026-05-05 05:41 | 37.40618 | 124.20258 | 29085 ft | 467 kts | 276° |
| 2026-05-05 05:41 | 37.40890 | 124.16183 | 29409 ft | 469 kts | 276° |
| 2026-05-05 05:41 | 37.41161 | 124.12079 | 29673 ft | 471 kts | 276° |
| 2026-05-05 05:41 | 37.41434 | 124.07953 | 29929 ft | 473 kts | 276° |
| 2026-05-05 05:42 | 37.41705 | 124.03820 | 30193 ft | 475 kts | 276° |
| 2026-05-05 05:42 | 37.41977 | 123.99665 | 30445 ft | 475 kts | 275° |
| 2026-05-05 05:42 | 37.42248 | 123.95519 | 30705 ft | 475 kts | 275° |
| 2026-05-05 05:42 | 37.42510 | 123.91424 | 30888 ft | 475 kts | 275° |
| 2026-05-05 05:43 | 37.42768 | 123.87279 | 31064 ft | 473 kts | 276° |
| 2026-05-05 05:43 | 37.43025 | 123.83157 | 31215 ft | 472 kts | 275° |
| 2026-05-05 05:43 | 37.43290 | 123.79019 | 31423 ft | 473 kts | 275° |
| 2026-05-05 05:43 | 37.43558 | 123.74892 | 31671 ft | 472 kts | 276° |
| 2026-05-05 05:44 | 37.43825 | 123.70771 | 31945 ft | 471 kts | 276° |
| 2026-05-05 05:44 | 37.44085 | 123.66678 | 32002 ft | 470 kts | 276° |
| 2026-05-05 05:44 | 37.44583 | 123.58517 | 32013 ft | 472 kts | 276° |
| 2026-05-05 05:45 | 37.45096 | 123.50277 | 32011 ft | 473 kts | 276° |
| 2026-05-05 05:45 | 37.45576 | 123.42002 | 32007 ft | 474 kts | 275° |
| 2026-05-05 05:46 | 37.46055 | 123.33725 | 32004 ft | 472 kts | 276° |
| 2026-05-05 05:46 | 37.46460 | 123.25502 | 31996 ft | 469 kts | 275° |
| 2026-05-05 05:47 | 37.46975 | 123.17335 | 31999 ft | 473 kts | 276° |
| 2026-05-05 05:47 | 37.47478 | 123.09069 | 31990 ft | 472 kts | 276° |
| 2026-05-05 05:48 | 37.47952 | 123.00798 | 31988 ft | 475 kts | 276° |
| 2026-05-05 05:48 | 37.48437 | 122.92480 | 31981 ft | 475 kts | 276° |